aviador You're here:

UKLL Decoded Metar

LVOV in UKRAINE
Report Time2018-02-18 21:30:00
UTC Time2018-02-18 21:41:09
Flight Rules vfr VFR
Wind310° at 4 kt
W.Decomp.*RWY 31: 4.0 kt HW 0.2 kt LCW
W.Rank310° ranks 12
Current wind is below 310° avg. (7.3)
Visibility9999 m
Phenomena:N/A
Clouds:Broken 032 Hf
Expected CloudBase > 2,000 ft AGL from Temp-Dew spread
Ceiling3,200 ft
Temp-2°C (ISA -15)
Dew Point-7°C (69% RH)
AAT-6.2°C
QNH1025 hPa
Density Alt-1,109 ft
Elevation1,066 ft
Report Wrong Elevation
Raw Report
METAR UKLL 182130Z 31002MPS 9999 BKN032 M02/M07 Q1025 R31/811041 NOSIG=

Extra information for UKLL:More info

Metar Taf Metar & Taf Last 4 Metars F.Rules Stats Wind Profile Meteogram Temp Stats Airport Information Weather charts Add Link Nearby VenuesMetar ALERT Operation Metar Decoded Social comments